Terminal Aerodrome Forecast
Issued by NWS

Home | Current Version | Previous Version | Text Only | Print | Product List | Glossary On
Versions: 1 2 3 4 5 6 7 8 9 10 11 12 13 14 15 16 17 18
000
FTUS43 KAPX 250500
TAFPLN
TAF
KPLN 250528Z 2506/2606 10010KT P6SM OVC080 WS015/13035KT
     FM250800 10011G20KT P6SM -RA SCT025 OVC050
     FM251800 10010KT P6SM BKN025
     FM260000 28005KT 4SM -SHRA OVC018=

USA.gov is the U.S. government's official web portal to all federal, state and local government web resources and services.